Terminal Aerodrome Forecast
Issued by NWS Twin Cities, MN

Home | Current Version | Previous Version | Text Only | Print | Product List | Glossary Off
Versions: 1 2 3 4 5 6 7 8 9 10 11 12 13 14 15 16 17 18 19 20 21

000
FTUS43 KMPX 290200 AAA
TAFSTC
TAF AMD
KSTC 290227Z 2902/2924 34008KT P6SM SCT070 BKN250
     FM290300 35012KT P6SM SCT009 OVC018
      TEMPO 2903/2907 BKN009 OVC015
     FM290700 01008KT 6SM -RA BR BKN008 OVC016
     FM291200 04011KT 6SM -RA BR BKN008 OVC015
     FM291800 05010KT P6SM BKN020 OVC035=

USA.gov is the U.S. government's official web portal to all federal, state and local government web resources and services.